Laughlin Air Force Base
KDLF : now visible

Airfield :











YOU CAN JOIN US ON...

 
LOGIN :

Register | Disclaimer

   EN    FR    IT 

 









Legend :    VFR   Marginal VFR   IFR   Intensive IFR   Very Intensive IFR
Visi :
Ceiling :
>= 8 km
>= 3000ft
5 to 8 km
1000 to 3000 ft
1500m to 5 km
500 to 1000 ft
800 to 1500m
200 to 500 ft
< 800m
< 200 ft
Symbols :   Thunderstorms  Fog  Heavy snow  Heavy precipitations  Wind > 20 kt







- Airport Elevation : 1082 ft


KDLF - Laughlin Air Force Base

CURRENT METAR :
  • 201358Z 14012KT 6SM BR BKN015 OVC020 26/23 A2978 RMK SLPNO WND DATA ESTMD ALSTG ESTMD RVRNO PNO VISNO RWY31 CHINO RWY31 $

EXPIRED METARs :
  • 201345Z 14011KT 6SM BR BKN013 OVC020 26/23 A2977 RMK SLPNO WND DATA ESTMD ALSTG ESTMD RVRNO PNO VISNO RWY31 CHINO RWY31 $
  • 201321Z 14008KT 6SM BR BKN013 OVC017 25/22 A2976 RMK SLPNO WND DATA ESTMD ALSTG ESTMD RVRNO PWINO PNO FZRANO VISNO RWY31 CHINO RWY31 $
  • 201257Z 14012KT 5SM BR BKN009 OVC011 A2976 RMK RAB06 SLPNO WND DATA ESTMD ALSTG ESTMD RVRNO PWINO PNO FZRANO VISNO RWY31 CHINO RWY31 $
  • 201235Z COR AUTO 14015KT 5SM BR OVC010 25/23 A2975 RMK AO2 RAB06 SLPNO RVRNO PWINO PNO FZRANO VISNO RWY31 CHINO RWY31 $ COR 1236
  • 201207Z AUTO 14015KT 5SM -RA BR OVC010 25/23 A2975 RMK AO2 RAB06 SLP061 $
  • 201156Z AUTO 13014G19KT 6SM BR OVC009 25/23 A2975 RMK AO2 SLP061 T02500234 10254 20248 55002 $
  • 201146Z COR AUTO 13012G18KT 7SM OVC009 25/23 A2975 RMK AO2 OVC V BKN SLP061 $ COR 1151
  • 201126Z AUTO 14012KT 6SM BR BKN012 OVC021 25/23 A2974 RMK AO2 CIG 012V018 CIG 009 RWY31 SLP057 $

TAF TAF KDLF
Valid from the 20 at 10:00 until the 21 at 16:00 UTC


201000Z 2010/2116 13012G18KT 9999 BKN011 OVC016 510055 QNH2973INS
TEMPO 2011/2015 4800 -DZ BR BKN009 OVC010
BECMG 2014/2015 15015G25KT 9999 SCT020 BKN035 510055 QNH2969INS
BECMG 2020/2021 15015G25KT 9999 SCT050 510055 QNH2953INS
BECMG 2102/2103 14012G18KT 9999 FEW035 520055 QNH2954INS
BECMG 2107/2108 18012KT 9999 SKC 520055 QNH2960INS
BECMG 2109/2110 33012KT 9999 SKC 510055 QNH2962INS
BECMG 2114/2115 30015G25KT 9999 SKC 510055 QNH2980INS TX33/2020Z TN19/2109Z
KZHU FIR / North America



MET'MAP, your aeronautical weather chart ! - Copyright ORBIFLY December 2007 - Disclaimer

ORBIFLY MET'MAP TEAM :

Programming & Development : Alexandra Zaïnal
Concept & Development : Baudouin d'Aumeries
Co-Development & Prog : Marc-Olivier Méhu
Technical & hardware support : Manuel Goepfert

Contact : metmap@orbifly.com




SOURCES & CREDITS :

   NOAA       Earth
Advisory